createdAt,value
2022-10-30T00:02:14.331Z,101307.97
2022-10-30T00:05:17.791Z,101304.47
2022-10-30T00:08:22.504Z,101297.53
2022-10-30T00:11:25.130Z,101307.34
2022-10-30T00:14:27.492Z,101304.94
2022-10-30T00:17:29.838Z,101304.75
2022-10-30T00:20:32.447Z,101290.03
2022-10-30T00:23:34.805Z,101289.06
2022-10-30T00:26:37.193Z,101295.00
2022-10-30T00:29:39.638Z,101290.03
2022-10-30T00:32:42.934Z,101288.91
2022-10-30T00:35:49.379Z,101287.16
2022-10-30T00:38:52.023Z,101286.19
2022-10-30T00:41:56.018Z,101277.78
2022-10-30T00:44:58.638Z,101269.16
2022-10-30T00:48:03.842Z,101274.38
2022-10-30T00:51:10.816Z,101275.75
2022-10-30T00:54:16.154Z,101274.09
2022-10-30T00:57:19.811Z,101275.25
2022-10-30T01:00:24.451Z,101272.63
2022-10-30T01:03:29.497Z,101259.81
2022-10-30T01:06:38.646Z,101273.34
2022-10-30T01:09:41.731Z,101275.88
2022-10-30T01:12:46.262Z,101268.09
2022-10-30T01:16:29.989Z,101261.41
2022-10-30T01:23:26.349Z,101246.13
2022-10-30T01:27:06.606Z,101244.34
2022-10-30T01:30:38.718Z,101245.56
2022-10-30T01:33:47.501Z,101238.88
2022-10-30T01:37:18.641Z,101244.06
2022-10-30T01:40:21.300Z,101261.28
2022-10-30T01:43:23.859Z,101257.44
2022-10-30T01:46:47.942Z,101264.84
2022-10-30T01:50:02.447Z,101258.91
2022-10-30T01:53:27.280Z,101265.13
2022-10-30T01:56:32.521Z,101263.09
2022-10-30T01:59:44.626Z,101267.13
2022-10-30T02:02:49.763Z,101269.16
2022-10-30T02:05:55.669Z,101271.38
2022-10-30T02:08:59.609Z,101273.47
2022-10-30T02:12:02.759Z,101277.34
2022-10-30T02:15:07.217Z,101277.78
2022-10-30T02:18:11.719Z,101272.44
2022-10-30T02:21:15.618Z,101262.63
2022-10-30T02:24:19.362Z,101270.53
2022-10-30T02:27:21.701Z,101251.72
2022-10-30T02:30:24.230Z,101257.91
2022-10-30T02:33:26.611Z,101267.72
2022-10-30T02:36:29.065Z,101265.34
2022-10-30T02:39:31.501Z,101252.50
2022-10-30T02:42:34.936Z,101233.03
2022-10-30T02:45:37.374Z,101212.66
2022-10-30T02:48:40.032Z,101217.69
2022-10-30T02:51:43.932Z,101234.47
2022-10-30T02:54:47.901Z,101247.53
2022-10-30T02:57:50.255Z,101252.03
2022-10-30T03:00:53.505Z,101264.38
2022-10-30T03:03:55.910Z,101257.06
2022-10-30T03:06:58.687Z,101258.94
2022-10-30T03:10:01.159Z,101260.56
2022-10-30T03:13:05.134Z,101246.50
2022-10-30T03:16:11.331Z,101251.88
2022-10-30T03:19:13.733Z,101242.91
2022-10-30T03:22:16.183Z,101247.16
2022-10-30T03:25:23.778Z,101262.03
2022-10-30T03:28:31.649Z,101268.97
2022-10-30T03:31:34.173Z,101274.88
2022-10-30T03:34:52.459Z,101271.31
2022-10-30T03:38:01.098Z,101260.56
2022-10-30T03:41:04.145Z,101256.72
2022-10-30T03:44:06.541Z,101259.66
2022-10-30T03:47:08.926Z,101264.81
2022-10-30T03:50:16.036Z,101258.97
2022-10-30T03:53:18.497Z,101260.69
2022-10-30T03:56:20.859Z,101251.25
2022-10-30T03:59:27.286Z,101246.50
2022-10-30T04:02:50.277Z,101242.13
2022-10-30T04:05:55.834Z,101237.63
2022-10-30T04:08:58.538Z,101238.44
2022-10-30T04:12:01.034Z,101232.25
2022-10-30T04:15:04.478Z,101234.00
2022-10-30T04:18:07.394Z,101238.22
2022-10-30T04:21:10.613Z,101244.28
2022-10-30T04:24:16.138Z,101241.59
2022-10-30T04:27:20.420Z,101238.91
2022-10-30T04:30:25.137Z,101241.19
2022-10-30T04:33:28.739Z,101245.28
2022-10-30T04:36:35.404Z,101234.84
2022-10-30T04:39:42.277Z,101237.66
2022-10-30T04:42:53.061Z,101233.41
2022-10-30T04:45:55.858Z,101229.94
2022-10-30T04:48:58.257Z,101233.03
2022-10-30T04:52:00.957Z,101241.66
2022-10-30T04:55:03.861Z,101252.03
2022-10-30T04:58:08.160Z,101252.72
2022-10-30T05:01:13.243Z,101249.09
2022-10-30T05:04:15.653Z,101244.72
2022-10-30T05:07:18.797Z,101243.69
2022-10-30T05:10:21.207Z,101245.56
2022-10-30T05:13:23.751Z,101234.63
2022-10-30T05:16:26.136Z,101213.44
2022-10-30T05:19:30.417Z,101206.47
2022-10-30T05:22:33.396Z,101225.31
2022-10-30T05:25:35.748Z,101248.88
2022-10-30T05:28:41.131Z,101259.81
2022-10-30T05:31:44.043Z,101279.44
2022-10-30T05:35:06.550Z,101272.53
2022-10-30T05:38:10.335Z,101279.50
2022-10-30T05:41:13.440Z,101260.28
2022-10-30T05:44:28.902Z,101247.38
2022-10-30T05:47:38.533Z,101263.56
2022-10-30T05:50:41.699Z,101265.19
2022-10-30T05:54:01.188Z,101271.03
2022-10-30T05:57:05.083Z,101262.34
2022-10-30T06:00:11.534Z,101246.50
2022-10-30T06:03:17.756Z,101238.56
2022-10-30T06:06:21.341Z,101224.63
2022-10-30T06:09:23.759Z,101213.81
2022-10-30T06:12:53.202Z,101233.44
2022-10-30T06:16:11.524Z,101226.44
2022-10-30T06:19:34.406Z,101222.66
2022-10-30T06:23:10.827Z,101221.81
2022-10-30T06:26:23.908Z,101213.81
2022-10-30T06:29:29.126Z,101228.34
2022-10-30T06:32:31.475Z,101232.88
2022-10-30T06:35:34.299Z,101242.91
2022-10-30T06:38:36.828Z,101259.91
2022-10-30T06:41:39.387Z,101250.84
2022-10-30T06:45:05.317Z,101239.41
2022-10-30T06:48:09.561Z,101248.66
2022-10-30T06:51:17.093Z,101263.94
2022-10-30T06:54:20.737Z,101265.22
2022-10-30T06:57:35.522Z,101264.81
2022-10-30T07:01:03.990Z,101264.16
2022-10-30T07:04:32.550Z,101256.50
2022-10-30T07:07:35.063Z,101248.38
2022-10-30T07:10:38.004Z,101251.72
2022-10-30T07:14:03.221Z,101268.78
2022-10-30T07:17:18.385Z,101274.81
2022-10-30T07:20:28.506Z,101270.00
2022-10-30T07:23:30.826Z,101267.16
2022-10-30T07:26:53.450Z,101284.41
2022-10-30T07:30:06.654Z,101272.34
2022-10-30T07:33:16.688Z,101277.13
2022-10-30T07:36:33.838Z,101281.63
2022-10-30T07:39:39.500Z,101287.06
2022-10-30T07:42:58.695Z,101286.41
2022-10-30T07:46:17.508Z,101286.25
2022-10-30T07:49:38.705Z,101282.88
2022-10-30T07:52:43.035Z,101279.66
2022-10-30T07:55:45.527Z,101272.63
2022-10-30T07:59:06.441Z,101266.47
2022-10-30T08:02:32.649Z,101271.03
2022-10-30T08:05:49.348Z,101267.16
2022-10-30T08:09:07.307Z,101278.13
2022-10-30T08:12:10.005Z,101268.28
2022-10-30T08:15:12.557Z,101274.31
2022-10-30T08:18:15.293Z,101265.50
2022-10-30T08:21:18.661Z,101266.63
2022-10-30T08:24:31.473Z,101265.88
2022-10-30T08:27:35.365Z,101271.25
2022-10-30T08:30:39.047Z,101276.53
2022-10-30T08:33:51.073Z,101275.75
2022-10-30T08:37:07.958Z,101279.72
2022-10-30T08:40:11.428Z,101281.34
2022-10-30T08:43:38.907Z,101284.31
2022-10-30T08:46:41.239Z,101276.91
2022-10-30T08:49:43.906Z,101279.78
2022-10-30T08:52:50.721Z,101272.25
2022-10-30T08:55:56.766Z,101271.94
2022-10-30T08:59:09.501Z,101271.09
2022-10-30T09:02:12.418Z,101277.56
2022-10-30T09:05:33.225Z,101280.78
2022-10-30T09:09:04.813Z,101283.81
2022-10-30T09:12:17.959Z,101271.94
2022-10-30T09:15:22.354Z,101269.09
2022-10-30T09:18:30.652Z,101268.25
2022-10-30T09:21:33.674Z,101264.19
2022-10-30T09:24:37.420Z,101276.59
2022-10-30T09:28:00.001Z,101264.88
2022-10-30T09:31:08.523Z,101272.00
2022-10-30T09:34:13.722Z,101262.06
2022-10-30T09:37:37.266Z,101266.78
2022-10-30T09:40:54.761Z,101275.22
2022-10-30T09:44:15.444Z,101280.16
2022-10-30T09:47:23.476Z,101263.97
2022-10-30T09:50:35.710Z,101253.44
2022-10-30T09:54:09.065Z,101251.13
2022-10-30T09:57:29.761Z,101247.91
2022-10-30T10:00:38.991Z,101247.88
2022-10-30T10:04:03.901Z,101248.97
2022-10-30T10:07:32.974Z,101250.06
2022-10-30T10:11:00.286Z,101250.66
2022-10-30T10:14:31.498Z,101240.78
2022-10-30T10:17:37.519Z,101235.91
2022-10-30T10:20:43.594Z,101224.31
2022-10-30T10:23:51.348Z,101229.03
2022-10-30T10:27:13.124Z,101247.97
2022-10-30T10:30:21.330Z,101244.16
2022-10-30T10:33:45.614Z,101239.13
2022-10-30T10:37:16.112Z,101230.84
2022-10-30T10:40:22.110Z,101229.78
2022-10-30T10:43:50.446Z,101232.06
2022-10-30T10:47:17.672Z,101248.66
2022-10-30T10:50:27.294Z,101245.69
2022-10-30T10:53:40.722Z,101241.78
2022-10-30T10:56:46.535Z,101245.06
2022-10-30T10:59:55.161Z,101240.53
2022-10-30T11:03:07.394Z,101227.59
2022-10-30T11:06:32.602Z,101232.97
2022-10-30T11:09:35.163Z,101228.81
2022-10-30T11:12:37.673Z,101212.59
2022-10-30T11:15:50.346Z,101218.38
2022-10-30T11:18:58.051Z,101227.56
2022-10-30T11:22:01.253Z,101230.78
2022-10-30T11:25:26.933Z,101219.66
2022-10-30T11:28:38.491Z,101215.50
2022-10-30T11:31:43.205Z,101208.47
2022-10-30T11:34:45.569Z,101217.03
2022-10-30T11:38:12.238Z,101220.81
2022-10-30T11:41:15.073Z,101224.38
2022-10-30T11:44:17.513Z,101224.16
2022-10-30T11:47:27.591Z,101218.59
2022-10-30T11:50:31.767Z,101209.19
2022-10-30T11:53:42.817Z,101209.28
2022-10-30T11:56:49.091Z,101206.59
2022-10-30T11:59:58.220Z,101206.59
2022-10-30T12:03:06.262Z,101212.44
2022-10-30T12:06:22.973Z,101204.66
2022-10-30T12:09:25.330Z,101192.66
2022-10-30T12:12:33.033Z,101196.75
2022-10-30T12:15:37.389Z,101193.94
2022-10-30T12:18:40.540Z,101197.78
2022-10-30T12:21:48.826Z,101192.03
2022-10-30T12:24:52.405Z,101193.09
2022-10-30T12:28:00.724Z,101196.56
2022-10-30T12:31:08.917Z,101201.56
2022-10-30T12:34:46.551Z,101198.13
2022-10-30T12:37:50.743Z,101193.00
2022-10-30T12:41:08.388Z,101188.06
2022-10-30T12:44:21.096Z,101188.72
2022-10-30T12:47:32.979Z,101195.75
2022-10-30T12:50:45.159Z,101188.97
2022-10-30T12:54:19.514Z,101183.38
2022-10-30T12:57:32.955Z,101181.44
2022-10-30T13:00:52.100Z,101182.34
2022-10-30T13:04:09.396Z,101182.69
2022-10-30T13:07:38.597Z,101178.84
2022-10-30T13:10:53.874Z,101186.44
2022-10-30T13:14:00.163Z,101187.19
2022-10-30T13:17:02.834Z,101181.25
2022-10-30T13:20:14.045Z,101180.66
2022-10-30T13:23:25.049Z,101178.16
2022-10-30T13:26:33.360Z,101181.72
2022-10-30T13:29:50.629Z,101182.41
2022-10-30T13:33:22.021Z,101174.84
2022-10-30T13:36:34.036Z,101173.78
2022-10-30T13:39:52.436Z,101173.19
2022-10-30T13:43:06.595Z,101177.00
2022-10-30T13:46:39.726Z,101178.66
2022-10-30T13:50:09.811Z,101181.94
2022-10-30T13:53:22.250Z,101184.22
2022-10-30T13:56:24.746Z,101178.28
2022-10-30T13:59:48.464Z,101186.69
2022-10-30T14:02:53.638Z,101177.44
2022-10-30T14:06:10.094Z,101192.94
2022-10-30T14:09:21.558Z,101194.69
2022-10-30T14:12:52.908Z,101185.44
2022-10-30T14:16:06.554Z,101178.34
2022-10-30T14:19:16.903Z,101189.75
2022-10-30T14:22:25.245Z,101182.00
2022-10-30T14:25:27.587Z,101187.59
2022-10-30T14:28:31.960Z,101194.38
2022-10-30T14:31:36.556Z,101201.06
2022-10-30T14:34:46.125Z,101194.78
2022-10-30T14:37:58.293Z,101200.22
2022-10-30T14:41:22.409Z,101187.75
2022-10-30T14:44:49.757Z,101187.91
2022-10-30T14:47:58.028Z,101189.41
2022-10-30T14:51:14.349Z,101195.94
2022-10-30T14:54:31.806Z,101183.22
2022-10-30T14:57:53.757Z,101196.38
2022-10-30T15:01:21.077Z,101189.91
2022-10-30T15:04:32.474Z,101203.88
2022-10-30T15:07:52.170Z,101184.84
2022-10-30T15:11:42.008Z,101196.84
2022-10-30T15:14:54.809Z,101183.16
2022-10-30T15:18:01.393Z,101184.91
2022-10-30T15:21:06.585Z,101192.03
2022-10-30T15:24:18.966Z,101181.72
2022-10-30T15:27:24.356Z,101191.38
2022-10-30T15:30:27.652Z,101185.91
2022-10-30T15:33:35.431Z,101198.47
2022-10-30T15:36:42.978Z,101200.66
2022-10-30T15:39:45.329Z,101198.38
2022-10-30T15:42:49.716Z,101198.22
2022-10-30T15:45:55.024Z,101195.28
2022-10-30T15:48:57.629Z,101201.94
2022-10-30T15:52:03.075Z,101197.81
2022-10-30T15:55:09.692Z,101194.69
2022-10-30T15:58:17.516Z,101199.94
2022-10-30T16:01:25.364Z,101184.06
2022-10-30T16:04:35.700Z,101187.34
2022-10-30T16:07:46.034Z,101222.47
2022-10-30T16:10:50.021Z,101237.75
2022-10-30T16:13:52.889Z,101240.31
2022-10-30T16:16:59.833Z,101229.16
2022-10-30T16:20:04.057Z,101226.84
2022-10-30T16:23:07.384Z,101220.66
2022-10-30T16:26:25.401Z,101212.31
2022-10-30T16:29:29.908Z,101209.38
2022-10-30T16:32:32.476Z,101218.19
2022-10-30T16:35:34.939Z,101218.34
2022-10-30T16:38:38.259Z,101217.09
2022-10-30T16:41:40.742Z,101226.44
2022-10-30T16:44:43.439Z,101217.09
2022-10-30T16:48:08.448Z,101230.19
2022-10-30T16:51:16.402Z,101211.91
2022-10-30T16:54:26.074Z,101205.81
2022-10-30T16:57:35.039Z,101212.56
2022-10-30T17:00:40.055Z,101193.38
2022-10-30T17:03:42.849Z,101203.78
2022-10-30T17:06:45.694Z,101203.63
2022-10-30T17:09:50.076Z,101214.00
2022-10-30T17:13:12.927Z,101208.59
2022-10-30T17:16:27.016Z,101209.81
2022-10-30T17:19:32.759Z,101212.84
2022-10-30T17:22:35.438Z,101210.34
2022-10-30T17:25:39.395Z,101217.50
2022-10-30T17:28:42.975Z,101215.75
2022-10-30T17:31:45.538Z,101224.22
2022-10-30T17:34:57.757Z,101221.50
2022-10-30T17:38:03.150Z,101215.31
2022-10-30T17:41:07.042Z,101206.47
2022-10-30T17:44:19.635Z,101196.13
2022-10-30T17:47:23.746Z,101202.03
2022-10-30T17:50:26.421Z,101211.50
2022-10-30T17:53:29.020Z,101214.09
2022-10-30T17:56:33.485Z,101211.13
2022-10-30T17:59:36.128Z,101216.59
2022-10-30T18:02:41.285Z,101216.91
2022-10-30T18:05:44.697Z,101209.81
2022-10-30T18:08:50.558Z,101219.28
2022-10-30T18:11:53.458Z,101223.41
2022-10-30T18:14:56.200Z,101221.09
2022-10-30T18:17:58.898Z,101218.59
2022-10-30T18:21:01.397Z,101217.16
2022-10-30T18:24:10.449Z,101209.22
2022-10-30T18:27:13.077Z,101218.44
2022-10-30T18:30:16.042Z,101210.81
2022-10-30T18:33:18.688Z,101205.75
2022-10-30T18:36:23.974Z,101214.66
2022-10-30T18:39:26.399Z,101214.50
2022-10-30T18:42:28.788Z,101200.63
2022-10-30T18:45:37.537Z,101194.25
2022-10-30T18:48:40.877Z,101205.22
2022-10-30T18:51:43.457Z,101208.03
2022-10-30T18:54:46.015Z,101203.63
2022-10-30T18:57:50.356Z,101206.28
2022-10-30T19:01:11.070Z,101213.00
2022-10-30T19:04:18.010Z,101218.78
2022-10-30T19:07:24.316Z,101211.59
2022-10-30T19:10:29.438Z,101222.84
2022-10-30T19:13:32.480Z,101224.16
2022-10-30T19:16:34.944Z,101225.06
2022-10-30T19:19:37.561Z,101225.75
2022-10-30T19:22:40.610Z,101218.19
2022-10-30T19:25:44.451Z,101219.09
2022-10-30T19:28:48.167Z,101211.56
2022-10-30T19:31:50.778Z,101208.72
2022-10-30T19:34:53.398Z,101206.13
2022-10-30T19:37:56.547Z,101212.84
2022-10-30T19:41:00.125Z,101202.03
2022-10-30T19:44:02.792Z,101207.50
2022-10-30T19:47:05.338Z,101208.38
2022-10-30T19:50:35.136Z,101202.31
2022-10-30T19:53:38.316Z,101204.13
2022-10-30T19:56:43.414Z,101206.66
2022-10-30T19:59:46.116Z,101203.22
2022-10-30T20:02:48.819Z,101209.31
2022-10-30T20:05:51.466Z,101201.47
2022-10-30T20:08:54.045Z,101205.38
2022-10-30T20:11:56.742Z,101206.22
2022-10-30T20:14:59.325Z,101209.72
2022-10-30T20:18:16.340Z,101209.97
2022-10-30T20:21:19.350Z,101222.59
2022-10-30T20:24:23.125Z,101220.84
2022-10-30T20:27:26.564Z,101217.50
2022-10-30T20:30:29.541Z,101213.16
2022-10-30T20:33:32.452Z,101209.78
2022-10-30T20:36:34.785Z,101212.50
2022-10-30T20:39:37.328Z,101208.25
2022-10-30T20:42:40.517Z,101208.31
2022-10-30T20:45:43.116Z,101202.22
2022-10-30T20:48:45.861Z,101206.28
2022-10-30T20:51:48.444Z,101203.53
2022-10-30T20:54:50.946Z,101214.66
2022-10-30T20:57:53.458Z,101204.97
2022-10-30T21:00:59.359Z,101200.03
2022-10-30T21:04:02.440Z,101201.84
2022-10-30T21:07:04.945Z,101207.66
2022-10-30T21:10:07.541Z,101206.06
2022-10-30T21:13:11.612Z,101203.63
2022-10-30T21:16:14.277Z,101210.56
2022-10-30T21:19:16.846Z,101200.09
2022-10-30T21:22:19.420Z,101212.91
2022-10-30T21:25:21.763Z,101210.56
2022-10-30T21:28:24.175Z,101217.41
2022-10-30T21:31:26.777Z,101214.81
2022-10-30T21:34:29.163Z,101212.16
2022-10-30T21:37:37.770Z,101214.00
2022-10-30T21:40:40.128Z,101217.84
2022-10-30T21:43:43.161Z,101209.31
2022-10-30T21:46:45.522Z,101214.50
2022-10-30T21:49:48.050Z,101210.22
2022-10-30T21:52:50.416Z,101212.47
2022-10-30T21:55:52.822Z,101209.03
2022-10-30T21:58:56.478Z,101212.19
2022-10-30T22:01:58.978Z,101204.31
2022-10-30T22:05:01.413Z,101209.50
2022-10-30T22:08:03.941Z,101216.47
2022-10-30T22:11:10.836Z,101210.34
2022-10-30T22:14:13.370Z,101213.31
2022-10-30T22:17:15.879Z,101210.50
2022-10-30T22:20:18.433Z,101208.28
2022-10-30T22:23:20.880Z,101213.69
2022-10-30T22:26:23.890Z,101211.56
2022-10-30T22:29:26.227Z,101214.00
2022-10-30T22:32:28.652Z,101219.44
2022-10-30T22:35:31.004Z,101210.53
2022-10-30T22:38:34.180Z,101211.41
2022-10-30T22:41:38.272Z,101209.53
2022-10-30T22:44:40.907Z,101213.88
2022-10-30T22:47:43.266Z,101206.03
2022-10-30T22:50:45.612Z,101208.81
2022-10-30T22:53:56.342Z,101202.75
2022-10-30T22:57:01.225Z,101202.03
2022-10-30T23:00:05.821Z,101206.38
2022-10-30T23:03:08.655Z,101209.63
2022-10-30T23:06:11.786Z,101205.00
2022-10-30T23:09:19.463Z,101202.97
2022-10-30T23:12:21.871Z,101198.69
2022-10-30T23:15:24.726Z,101200.56
2022-10-30T23:18:27.203Z,101205.47
2022-10-30T23:21:31.796Z,101196.69
2022-10-30T23:24:34.242Z,101202.59
2022-10-30T23:27:36.623Z,101205.03
2022-10-30T23:30:42.503Z,101199.16
2022-10-30T23:33:49.659Z,101200.16
2022-10-30T23:36:53.519Z,101195.94
2022-10-30T23:39:57.892Z,101192.38
2022-10-30T23:43:00.707Z,101197.50
2022-10-30T23:46:03.338Z,101198.41
2022-10-30T23:49:05.987Z,101190.09
2022-10-30T23:52:08.364Z,101195.28
2022-10-30T23:55:10.873Z,101196.56
2022-10-30T23:58:13.276Z,101188.78
